Ana Sayfa
METAR-TAF:

METAR-TAF

Havaalanları :

Shreveport, Louisiana, Amerika Birleşik Devletleri

Enlem: 32-32-33N, Boylam: 093-44-41W, yükseklik: 54 m

Güncel hava durumu gözlemi

Rapor saat 04:53 UTC de 50 dakika önce yapıldı.
Rüzgar güney/güneybatıdan 8 kt
Sıcaklık 30°C
Nem 66%
Basınç 1014 hPa
Görüş mesafesi: 16.1 km
Açık gökyüzü

METAR: KDTN 160453Z AUTO 20008KT 10SM CLR 30/23 A2994 RMK AO2 SLP134 T03000228

Saat: 00:43 (05:43 UTC)


TAF: eksik

4.000'den fazla havaalanı için hava durumu gözlemleri ve tahminleri (METAR ve TAF raporları).

Kullanılabilir istasyonlar harita üzerinde sarı ve kırmızı noktalarla gösterilir.

İstasyonun adını görmek için fareyi noktanın üzerinde gezdirin.

Sonrasında hava gözlem ve tahminlerini görmek için tıklayın.

Haritayı değiştirmek için: yaklaştırmak için siyah artı işaretli yeşil düğmeye ve uzaklaştırmak için de eksi işaretli düğmeye hızla tıklayın; bitişik haritalar için yeşil okları kullanın.


METAR-TAF: